Time;durP1;ratioP1;P1;durP2;ratioP2;P2;SDS_P1;SDS_P2;PMS_P1;PMS_P2;Temp;Humidity;BMP_temperature;BMP_pressure;BME280_temperature;BME280_humidity;BME280_pressure;Samples;Min_cycle;Max_cycle;Signal;HPM_P1;HPM_P2
2023/03/20 00:01:17;;;;;;;;;;;;;;;;;;2215522;66;1144;-67
2023/03/20 00:03:48;;;;;;;;;;;;;;;;;;2215492;66;1851;-67
2023/03/20 00:06:22;;;;;;;;;;;;;;;;;;2212052;67;1074;-68
2023/03/20 00:08:56;;;;;;;;;;;;;;;;;;2212475;66;1926;-67
2023/03/20 00:11:29;;;;;;;;;;;;;;;;;;2212131;66;1078;-68
2023/03/20 00:14:07;;;;;;;;;;;;;;;;;;2212853;66;1234;-68
2023/03/20 00:16:41;;;;;;;;;;;;;;;;;;2212828;67;1371;-68
2023/03/20 00:19:16;;;;;;;;;;;;;;;;;;2211980;59;2113;-67
2023/03/20 00:21:46;;;;;;;;;;;;;;;;;;2212891;59;2287;-67
2023/03/20 00:24:17;;;;;;;;;;;;;;;;;;2213599;66;1212;-67
2023/03/20 00:26:48;;;;;;;;;;;;;;;;;;2212689;67;1081;-67
2023/03/20 00:29:23;;;;;;;;;;;;;;;;;;2212492;59;1938;-68
2023/03/20 00:31:54;;;;;;;;;;;;;;;;;;2212903;67;1005;-67
2023/03/20 00:34:26;;;;;;;;;;;;;;;;;;2212996;67;1063;-67
2023/03/20 00:36:59;;;;;;;;;;;;;;;;;;2212546;67;985;-67
2023/03/20 00:39:30;;;;;;;;;;;;;;;;;;2212686;67;1245;-67
2023/03/20 00:42:02;;;;;;;;;;;;;;;;;;2212299;59;1136;-67
2023/03/20 00:44:35;;;;;;;;;;;;;;;;;;2213108;66;1100;-68
2023/03/20 00:47:16;;;;;;;;;;;;;;;;;;2211868;59;1144;-67
2023/03/20 00:49:48;;;;;;;;;;;;;;;;;;2211750;66;1996;-68
2023/03/20 00:52:19;;;;;;;;;;;;;;;;;;2215481;66;1009;-67
2023/03/20 00:54:50;;;;;;;;;;;;;;;;;;2212514;66;1215;-68
2023/03/20 00:57:23;;;;;;;;;;;;;;;;;;2214707;66;1571;-67
2023/03/20 00:59:57;;;;;;;;;;;;;;;;;;2211626;67;1240;-67
2023/03/20 01:02:28;;;;;;;;;;;;;;;;;;2212395;67;1173;-68
2023/03/20 01:04:58;;;;;;;;;;;;;;;;;;2212566;66;1033;-68
2023/03/20 01:07:28;;;;;;;;;;;;;;;;;;2211638;66;1124;-67
2023/03/20 01:09:59;;;;;;;;;;;;;;;;;;2211672;67;1993;-68
2023/03/20 01:12:29;;;;;;;;;;;;;;;;;;2213045;67;1058;-67
2023/03/20 01:15:00;;;;;;;;;;;;;;;;;;2212176;67;1025;-68
2023/03/20 01:17:30;;;;;;;;;;;;;;;;;;2212731;66;1079;-67
2023/03/20 01:20:00;;;;;;;;;;;;;;;;;;2212295;59;2632;-67
2023/03/20 01:22:31;;;;;;;;;;;;;;;;;;2213260;66;2500;-67
2023/03/20 01:25:02;;;;;;;;;;;;;;;;;;2212941;66;1133;-67
2023/03/20 01:27:35;;;;;;;;;;;;;;;;;;2212878;66;1011;-68
2023/03/20 01:30:15;;;;;;;;;;;;;;;;;;2212308;67;1939;-68
2023/03/20 01:32:46;;;;;;;;;;;;;;;;;;2212029;67;1149;-67
2023/03/20 01:35:24;;;;;;;;;;;;;;;;;;2212754;67;1282;-67
2023/03/20 01:37:55;;;;;;;;;;;;;;;;;;2213357;66;1214;-67
2023/03/20 01:40:40;;;;;;;;;;;;;;;;;;2215074;67;1156;-67
2023/03/20 01:43:15;;;;;;;;;;;;;;;;;;2212755;66;1055;-68
2023/03/20 01:45:53;;;;;;;;;;;;;;;;;;2212633;59;1140;-66
2023/03/20 01:48:26;;;;;;;;;;;;;;;;;;2212010;67;1940;-67
2023/03/20 01:50:56;;;;;;;;;;;;;;;;;;2211887;67;1115;-67
2023/03/20 01:53:27;;;;;;;;;;;;;;;;;;2212033;66;1098;-67
2023/03/20 01:55:59;;;;;;;;;;;;;;;;;;2212296;66;1050;-68
2023/03/20 01:58:35;;;;;;;;;;;;;;;;;;2211769;66;1305;-68
2023/03/20 02:01:09;;;;;;;;;;;;;;;;;;2212674;59;1544;-68
2023/03/20 02:03:45;;;;;;;;;;;;;;;;;;2211770;67;1168;-67
2023/03/20 02:06:18;;;;;;;;;;;;;;;;;;2212231;67;1088;-68
2023/03/20 02:08:49;;;;;;;;;;;;;;;;;;2211516;66;1944;-67
2023/03/20 02:11:22;;;;;;;;;;;;;;;;;;2212340;67;1074;-68
2023/03/20 02:13:54;;;;;;;;;;;;;;;;;;2212024;67;1247;-68
2023/03/20 02:16:24;;;;;;;;;;;;;;;;;;2212185;67;1057;-67
2023/03/20 02:18:57;;;;;;;;;;;;;;;;;;2211553;66;1219;-68
2023/03/20 02:21:27;;;;;;;;;;;;;;;;;;2211748;59;2304;-68
2023/03/20 02:24:07;;;;;;;;;;;;;;;;;;2211846;59;2346;-68
2023/03/20 02:27:00;;;;;;;;;;;;;;;;;;2212093;66;1090;-67
2023/03/20 02:29:54;;;;;;;;;;;;;;;;;;2214969;59;1940;-67
2023/03/20 02:32:43;;;;;;;;;;;;;;;;;;2210615;67;1248;-67
2023/03/20 02:35:32;;;;;;;;;;;;;;;;;;2212136;67;1064;-67
2023/03/20 02:38:21;;;;;;;;;;;;;;;;;;2211400;59;1296;-67
2023/03/20 02:40:55;;;;;;;;;;;;;;;;;;2210941;67;1410;-70
2023/03/20 02:43:32;;;;;;;;;;;;;;;;;;2212165;67;1099;-67
2023/03/20 02:46:21;;;;;;;;;;;;;;;;;;2212413;59;1111;-67
2023/03/20 02:49:13;;;;;;;;;;;;;;;;;;2211607;66;1937;-67
2023/03/20 02:51:43;;;;;;;;;;;;;;;;;;2211748;67;1088;-68
2023/03/20 02:54:14;;;;;;;;;;;;;;;;;;2212682;59;1180;-68
2023/03/20 02:56:56;;;;;;;;;;;;;;;;;;2211894;66;1080;-67
2023/03/20 02:59:30;;;;;;;;;;;;;;;;;;2211467;66;1295;-67
2023/03/20 03:02:06;;;;;;;;;;;;;;;;;;2212501;59;1118;-67
2023/03/20 03:04:39;;;;;;;;;;;;;;;;;;2214456;66;1188;-67
2023/03/20 03:07:12;;;;;;;;;;;;;;;;;;2211478;66;1155;-68
2023/03/20 03:09:45;;;;;;;;;;;;;;;;;;2210660;67;1940;-67
2023/03/20 03:12:17;;;;;;;;;;;;;;;;;;2212054;67;1150;-67
2023/03/20 03:14:52;;;;;;;;;;;;;;;;;;2211716;66;1211;-68
2023/03/20 03:17:24;;;;;;;;;;;;;;;;;;2211326;67;1084;-67
2023/03/20 03:19:58;;;;;;;;;;;;;;;;;;2211354;66;1533;-67
2023/03/20 03:22:29;;;;;;;;;;;;;;;;;;2211897;59;2264;-68
2023/03/20 03:24:59;;;;;;;;;;;;;;;;;;2212200;59;2527;-68
2023/03/20 03:27:38;;;;;;;;;;;;;;;;;;2212931;66;1170;-68
2023/03/20 03:30:12;;;;;;;;;;;;;;;;;;2211632;66;1920;-67
2023/03/20 03:32:48;;;;;;;;;;;;;;;;;;2211826;67;1139;-68
2023/03/20 03:35:20;;;;;;;;;;;;;;;;;;2215171;66;1329;-67
2023/03/20 03:37:56;;;;;;;;;;;;;;;;;;2212055;66;1265;-67
2023/03/20 03:40:35;;;;;;;;;;;;;;;;;;2212257;59;1184;-68
2023/03/20 03:43:09;;;;;;;;;;;;;;;;;;2212391;67;1287;-67
2023/03/20 03:45:58;;;;;;;;;;;;;;;;;;2211088;66;1063;-67
2023/03/20 03:48:32;;;;;;;;;;;;;;;;;;2212026;59;2004;-67
2023/03/20 03:51:06;;;;;;;;;;;;;;;;;;2214952;66;1113;-67
2023/03/20 03:53:40;;;;;;;;;;;;;;;;;;2212027;59;1025;-67
2023/03/20 03:56:11;;;;;;;;;;;;;;;;;;2212914;67;1073;-67
2023/03/20 03:58:43;;;;;;;;;;;;;;;;;;2212502;66;1235;-67
2023/03/20 04:01:15;;;;;;;;;;;;;;;;;;2213337;67;1246;-67
2023/03/20 04:03:59;;;;;;;;;;;;;;;;;;2212944;66;965;-67
2023/03/20 04:06:30;;;;;;;;;;;;;;;;;;2213416;66;1135;-67
2023/03/20 04:09:01;;;;;;;;;;;;;;;;;;2212048;66;2000;-67
2023/03/20 04:11:38;;;;;;;;;;;;;;;;;;2212497;67;1087;-68
2023/03/20 04:14:09;;;;;;;;;;;;;;;;;;2213032;67;1060;-67
2023/03/20 04:16:42;;;;;;;;;;;;;;;;;;2212405;67;1379;-67
2023/03/20 04:19:15;;;;;;;;;;;;;;;;;;2215295;66;1241;-68
2023/03/20 04:21:46;;;;;;;;;;;;;;;;;;2213276;66;1147;-68
2023/03/20 04:24:16;;;;;;;;;;;;;;;;;;2212836;66;1286;-68
2023/03/20 04:26:47;;;;;;;;;;;;;;;;;;2213330;67;1124;-68
2023/03/20 04:29:17;;;;;;;;;;;;;;;;;;2215364;66;1938;-67
2023/03/20 04:31:47;;;;;;;;;;;;;;;;;;2215164;66;1813;-67
2023/03/20 04:34:18;;;;;;;;;;;;;;;;;;2213147;67;1254;-68
2023/03/20 04:36:49;;;;;;;;;;;;;;;;;;2213083;66;1145;-68
2023/03/20 04:39:19;;;;;;;;;;;;;;;;;;2212978;59;1225;-67
2023/03/20 04:41:53;;;;;;;;;;;;;;;;;;2215203;66;1525;-68
2023/03/20 04:44:23;;;;;;;;;;;;;;;;;;2213479;66;1131;-68
2023/03/20 04:46:54;;;;;;;;;;;;;;;;;;2213524;59;1168;-68
2023/03/20 04:49:24;;;;;;;;;;;;;;;;;;2214720;67;2467;-67
2023/03/20 04:51:55;;;;;;;;;;;;;;;;;;2212605;66;1068;-68
2023/03/20 04:54:25;;;;;;;;;;;;;;;;;;2210573;67;1379;-68
2023/03/20 04:56:55;;;;;;;;;;;;;;;;;;2212017;67;1017;-68
2023/03/20 04:59:26;;;;;;;;;;;;;;;;;;2211828;67;1227;-68
2023/03/20 05:01:59;;;;;;;;;;;;;;;;;;2211811;59;1026;-67
2023/03/20 05:04:29;;;;;;;;;;;;;;;;;;2211716;59;1128;-67
2023/03/20 05:07:00;;;;;;;;;;;;;;;;;;2211028;59;1062;-68
2023/03/20 05:09:41;;;;;;;;;;;;;;;;;;2214065;58;1982;-68
2023/03/20 05:12:12;;;;;;;;;;;;;;;;;;2211658;67;1057;-67
2023/03/20 05:14:48;;;;;;;;;;;;;;;;;;2211384;67;1183;-67
2023/03/20 05:17:18;;;;;;;;;;;;;;;;;;2211534;66;1214;-67
2023/03/20 05:19:49;;;;;;;;;;;;;;;;;;2211778;66;1250;-67
2023/03/20 05:22:19;;;;;;;;;;;;;;;;;;2212246;67;1188;-68
2023/03/20 05:24:50;;;;;;;;;;;;;;;;;;2211890;66;1216;-68
2023/03/20 05:27:24;;;;;;;;;;;;;;;;;;2212722;67;1112;-67
2023/03/20 05:29:54;;;;;;;;;;;;;;;;;;2214079;59;1932;-68
2023/03/20 05:32:24;;;;;;;;;;;;;;;;;;2211537;67;1263;-67
2023/03/20 05:34:55;;;;;;;;;;;;;;;;;;2211679;67;1033;-67
2023/03/20 05:37:25;;;;;;;;;;;;;;;;;;2211499;67;1319;-68
2023/03/20 05:39:59;;;;;;;;;;;;;;;;;;2211760;67;1167;-67
2023/03/20 05:42:30;;;;;;;;;;;;;;;;;;2212120;67;1252;-68
2023/03/20 05:45:00;;;;;;;;;;;;;;;;;;2211853;67;1016;-67
2023/03/20 05:47:30;;;;;;;;;;;;;;;;;;2212235;59;1123;-67
2023/03/20 05:50:01;;;;;;;;;;;;;;;;;;2211074;67;1929;-67
2023/03/20 05:52:32;;;;;;;;;;;;;;;;;;2214580;66;1202;-67
2023/03/20 05:55:02;;;;;;;;;;;;;;;;;;2210906;67;1413;-68
2023/03/20 05:57:33;;;;;;;;;;;;;;;;;;2211975;67;1148;-68
2023/03/20 06:00:04;;;;;;;;;;;;;;;;;;2210567;67;1226;-68
2023/03/20 06:02:35;;;;;;;;;;;;;;;;;;2210869;67;1245;-68
2023/03/20 06:05:05;;;;;;;;;;;;;;;;;;2210003;67;1132;-67
2023/03/20 06:07:36;;;;;;;;;;;;;;;;;;2211950;59;1081;-67
2023/03/20 06:10:06;;;;;;;;;;;;;;;;;;2211643;67;1940;-68
2023/03/20 06:12:37;;;;;;;;;;;;;;;;;;2211813;67;1166;-68
2023/03/20 06:15:08;;;;;;;;;;;;;;;;;;2211518;67;1141;-67
2023/03/20 06:17:38;;;;;;;;;;;;;;;;;;2211033;59;1221;-67
2023/03/20 06:20:09;;;;;;;;;;;;;;;;;;2211102;67;1315;-67
2023/03/20 06:22:40;;;;;;;;;;;;;;;;;;2211867;67;1165;-67
2023/03/20 06:25:10;;;;;;;;;;;;;;;;;;2212008;67;1222;-67
2023/03/20 06:27:41;;;;;;;;;;;;;;;;;;2211681;66;1214;-68
2023/03/20 06:30:12;;;;;;;;;;;;;;;;;;2211751;67;1940;-68
2023/03/20 06:32:42;;;;;;;;;;;;;;;;;;2211886;67;1234;-67
2023/03/20 06:35:13;;;;;;;;;;;;;;;;;;2212393;66;1263;-68
2023/03/20 06:37:46;;;;;;;;;;;;;;;;;;2211440;59;1685;-67
2023/03/20 06:40:16;;;;;;;;;;;;;;;;;;2210905;59;1678;-67
2023/03/20 06:42:47;;;;;;;;;;;;;;;;;;2212031;66;1163;-68
2023/03/20 06:45:18;;;;;;;;;;;;;;;;;;2212192;67;1198;-68
2023/03/20 06:47:48;;;;;;;;;;;;;;;;;;2211508;59;1204;-68
2023/03/20 06:50:18;;;;;;;;;;;;;;;;;;2211516;67;1994;-68
2023/03/20 06:52:48;;;;;;;;;;;;;;;;;;2211832;67;1125;-68
2023/03/20 06:55:19;;;;;;;;;;;;;;;;;;2211832;67;1143;-67
2023/03/20 06:57:49;;;;;;;;;;;;;;;;;;2211782;67;1269;-68
2023/03/20 07:00:20;;;;;;;;;;;;;;;;;;2211752;67;1053;-68
2023/03/20 07:02:51;;;;;;;;;;;;;;;;;;2210476;59;1741;-68
2023/03/20 07:05:21;;;;;;;;;;;;;;;;;;2212028;67;1120;-68
2023/03/20 07:07:51;;;;;;;;;;;;;;;;;;2211517;67;1291;-68
2023/03/20 07:10:23;;;;;;;;;;;;;;;;;;2211083;67;1940;-68
2023/03/20 07:12:56;;;;;;;;;;;;;;;;;;2211474;67;1308;-68
2023/03/20 07:15:28;;;;;;;;;;;;;;;;;;2211913;67;1095;-68
2023/03/20 07:18:05;;;;;;;;;;;;;;;;;;2210998;59;1242;-68
2023/03/20 07:20:35;;;;;;;;;;;;;;;;;;2211935;67;1195;-68
2023/03/20 07:23:06;;;;;;;;;;;;;;;;;;2212157;67;1079;-68
2023/03/20 07:25:37;;;;;;;;;;;;;;;;;;2214452;66;1081;-68
2023/03/20 07:28:08;;;;;;;;;;;;;;;;;;2211930;59;1136;-68
2023/03/20 07:30:48;;;;;;;;;;;;;;;;;;2211549;67;2011;-68
2023/03/20 07:33:19;;;;;;;;;;;;;;;;;;2211959;66;1231;-68
2023/03/20 07:35:53;;;;;;;;;;;;;;;;;;2211562;67;1206;-68
2023/03/20 07:38:26;;;;;;;;;;;;;;;;;;2211730;67;1196;-68
2023/03/20 07:40:57;;;;;;;;;;;;;;;;;;2211037;67;1021;-68
2023/03/20 07:43:27;;;;;;;;;;;;;;;;;;2211928;67;992;-68
2023/03/20 07:46:00;;;;;;;;;;;;;;;;;;2211265;59;1094;-68
2023/03/20 07:48:30;;;;;;;;;;;;;;;;;;2211729;67;1927;-68
2023/03/20 07:51:01;;;;;;;;;;;;;;;;;;2211406;67;1087;-68
2023/03/20 07:53:31;;;;;;;;;;;;;;;;;;2211834;67;1144;-68
2023/03/20 07:56:11;;;;;;;;;;;;;;;;;;2210963;59;1219;-68
2023/03/20 07:58:50;;;;;;;;;;;;;;;;;;2211504;67;1226;-67
2023/03/20 08:01:20;;;;;;;;;;;;;;;;;;2212055;67;981;-68
2023/03/20 08:03:51;;;;;;;;;;;;;;;;;;2211478;67;1291;-68
2023/03/20 08:06:21;;;;;;;;;;;;;;;;;;2212282;67;1066;-68
2023/03/20 08:08:51;;;;;;;;;;;;;;;;;;2214427;66;1955;-68
2023/03/20 08:11:22;;;;;;;;;;;;;;;;;;2213076;67;1086;-68
2023/03/20 08:13:53;;;;;;;;;;;;;;;;;;2212792;66;1293;-67
2023/03/20 08:16:26;;;;;;;;;;;;;;;;;;2212870;67;1103;-68
2023/03/20 08:19:00;;;;;;;;;;;;;;;;;;2211440;67;1154;-68
2023/03/20 08:21:36;;;;;;;;;;;;;;;;;;2212584;66;1154;-68
2023/03/20 08:24:07;;;;;;;;;;;;;;;;;;2210727;59;2076;-68
2023/03/20 08:26:37;;;;;;;;;;;;;;;;;;2212402;66;1084;-68
2023/03/20 08:29:08;;;;;;;;;;;;;;;;;;2212811;58;1943;-68
2023/03/20 08:31:48;;;;;;;;;;;;;;;;;;2212853;66;1147;-68
2023/03/20 08:34:25;;;;;;;;;;;;;;;;;;2212413;67;1265;-67
2023/03/20 08:37:14;;;;;;;;;;;;;;;;;;;;;
2023/03/20 08:40:06;;;;;;;;;;;;;;;;;;2212350;66;1196;-67
2023/03/20 08:42:36;;;;;;;;;;;;;;;;;;2213028;67;1898;-68
2023/03/20 08:45:07;;;;;;;;;;;;;;;;;;2213221;66;1192;-68
2023/03/20 08:47:39;;;;;;;;;;;;;;;;;;2213168;59;1013;-68
2023/03/20 08:50:10;;;;;;;;;;;;;;;;;;2213023;66;1927;-68
2023/03/20 08:52:42;;;;;;;;;;;;;;;;;;2213032;67;1084;-68
2023/03/20 08:55:13;;;;;;;;;;;;;;;;;;2213609;67;1195;-68
2023/03/20 08:57:44;;;;;;;;;;;;;;;;;;2212565;59;1191;-68
2023/03/20 09:00:15;;;;;;;;;;;;;;;;;;2211122;67;1408;-68
2023/03/20 09:02:46;;;;;;;;;;;;;;;;;;2212605;66;1263;-68
2023/03/20 09:05:16;;;;;;;;;;;;;;;;;;2212817;67;1075;-68
2023/03/20 09:07:47;;;;;;;;;;;;;;;;;;2212809;66;1202;-68
2023/03/20 09:10:18;;;;;;;;;;;;;;;;;;2212114;66;1920;-68
2023/03/20 09:12:48;;;;;;;;;;;;;;;;;;2215438;66;1140;-68
2023/03/20 09:15:18;;;;;;;;;;;;;;;;;;2215392;66;1093;-68
2023/03/20 09:17:48;;;;;;;;;;;;;;;;;;2212422;67;1274;-68
2023/03/20 09:20:19;;;;;;;;;;;;;;;;;;2212785;67;1166;-68
2023/03/20 09:22:52;;;;;;;;;;;;;;;;;;2212437;67;1060;-67
2023/03/20 09:25:22;;;;;;;;;;;;;;;;;;2213030;67;1103;-68
2023/03/20 09:27:59;;;;;;;;;;;;;;;;;;2212900;67;1218;-68
2023/03/20 09:30:29;;;;;;;;;;;;;;;;;;2211543;67;1939;-68
2023/03/20 09:33:00;;;;;;;;;;;;;;;;;;2212496;67;961;-68
2023/03/20 09:35:30;;;;;;;;;;;;;;;;;;2212705;66;1073;-68
2023/03/20 09:38:01;;;;;;;;;;;;;;;;;;2212318;66;1179;-68
2023/03/20 09:40:38;;;;;;;;;;;;;;;;;;2212907;67;1115;-68
2023/03/20 09:43:16;;;;;;;;;;;;;;;;;;2212361;59;1235;-68
2023/03/20 09:45:54;;;;;;;;;;;;;;;;;;2212070;66;1080;-68
2023/03/20 09:48:39;;;;;;;;;;;;;;;;;;2213004;66;2003;-69
2023/03/20 09:51:18;;;;;;;;;;;;;;;;;;2212480;67;1185;-68
2023/03/20 09:53:52;;;;;;;;;;;;;;;;;;2210826;67;1353;-69
2023/03/20 09:56:24;;;;;;;;;;;;;;;;;;2212669;67;1147;-68
2023/03/20 09:59:00;;;;;;;;;;;;;;;;;;2212210;59;1125;-69
2023/03/20 10:01:44;;;;;;;;;;;;;;;;;;2212281;67;1195;-69
2023/03/20 10:04:14;;;;;;;;;;;;;;;;;;2212684;59;1377;-68
2023/03/20 10:06:45;;;;;;;;;;;;;;;;;;2212599;67;1155;-68
2023/03/20 10:09:23;;;;;;;;;;;;;;;;;;2212399;67;1942;-69
2023/03/20 10:12:10;;;;;;;;;;;;;;;;;;2212286;67;1084;-69
2023/03/20 10:14:52;;;;;;;;;;;;;;;;;;2214572;66;1079;-69
2023/03/20 10:17:33;;;;;;;;;;;;;;;;;;2212677;66;1160;-69
2023/03/20 10:20:10;;;;;;;;;;;;;;;;;;2211916;59;2039;-68
2023/03/20 10:22:44;;;;;;;;;;;;;;;;;;2210339;66;1372;-68
2023/03/20 10:25:25;;;;;;;;;;;;;;;;;;2211905;67;1104;-68
2023/03/20 10:27:59;;;;;;;;;;;;;;;;;;2212229;67;1179;-69
2023/03/20 10:30:48;;;;;;;;;;;;;;;;;;2211222;67;1949;-68
2023/03/20 10:33:37;;;;;;;;;;;;;;;;;;2211622;67;2144;-68
2023/03/20 10:36:26;;;;;;;;;;;;;;;;;;2211634;59;1077;-68
2023/03/20 10:38:57;;;;;;;;;;;;;;;;;;2211295;67;1204;-69
2023/03/20 10:41:48;;;;;;;;;;;;;;;;;;2211841;67;1042;-68
2023/03/20 10:44:26;;;;;;;;;;;;;;;;;;2211511;67;1209;-69
2023/03/20 10:47:03;;;;;;;;;;;;;;;;;;2211739;59;1034;-68
2023/03/20 10:49:45;;;;;;;;;;;;;;;;;;2211484;66;1950;-69
2023/03/20 10:52:16;;;;;;;;;;;;;;;;;;2211823;67;1063;-69
2023/03/20 10:54:48;;;;;;;;;;;;;;;;;;2211271;66;1028;-69
2023/03/20 10:57:25;;;;;;;;;;;;;;;;;;2211867;67;981;-68
2023/03/20 10:59:56;;;;;;;;;;;;;;;;;;2211690;66;1267;-68
2023/03/20 11:02:35;;;;;;;;;;;;;;;;;;2211830;67;1119;-68
2023/03/20 11:05:38;;;;;;;;;;;;;;;;;;2211695;67;1047;-68
2023/03/20 11:08:12;;;;;;;;;;;;;;;;;;2203199;59;1349;-68
2023/03/20 11:10:43;;;;;;;;;;;;;;;;;;2211035;59;1945;-68
2023/03/20 11:13:29;;;;;;;;;;;;;;;;;;2210691;67;1256;-69
2023/03/20 11:16:18;;;;;;;;;;;;;;;;;;2210811;67;1141;-69
2023/03/20 11:18:49;;;;;;;;;;;;;;;;;;2212081;67;1307;-68
2023/03/20 11:21:27;;;;;;;;;;;;;;;;;;2211482;67;1148;-69
2023/03/20 11:23:57;;;;;;;;;;;;;;;;;;2211754;67;1001;-69
2023/03/20 11:26:30;;;;;;;;;;;;;;;;;;2211821;67;1195;-69
2023/03/20 11:29:04;;;;;;;;;;;;;;;;;;2211256;67;1945;-69
2023/03/20 11:31:39;;;;;;;;;;;;;;;;;;2211682;66;1107;-68
2023/03/20 11:34:12;;;;;;;;;;;;;;;;;;2211951;67;1112;-69
2023/03/20 11:37:04;;;;;;;;;;;;;;;;;;2211144;67;1140;-69
2023/03/20 11:39:38;;;;;;;;;;;;;;;;;;2211232;67;1305;-69
2023/03/20 11:42:21;;;;;;;;;;;;;;;;;;2211345;67;1072;-68
2023/03/20 11:44:55;;;;;;;;;;;;;;;;;;2212240;67;1031;-69
2023/03/20 11:47:27;;;;;;;;;;;;;;;;;;2212299;59;1149;-69
2023/03/20 11:49:59;;;;;;;;;;;;;;;;;;2211748;67;1939;-69
2023/03/20 11:52:55;;;;;;;;;;;;;;;;;;2212598;67;1227;-69
2023/03/20 11:55:30;;;;;;;;;;;;;;;;;;2212674;67;1291;-69
2023/03/20 11:58:02;;;;;;;;;;;;;;;;;;2212459;67;1169;-68
2023/03/20 12:00:39;;;;;;;;;;;;;;;;;;2212129;67;978;-69
2023/03/20 12:03:28;;;;;;;;;;;;;;;;;;2212381;67;1183;-69
2023/03/20 12:06:00;;;;;;;;;;;;;;;;;;2212255;67;986;-68
2023/03/20 12:08:38;;;;;;;;;;;;;;;;;;2212406;66;1995;-69
2023/03/20 12:11:22;;;;;;;;;;;;;;;;;;2211987;66;1089;-68
2023/03/20 12:13:52;;;;;;;;;;;;;;;;;;2212553;67;1020;-69
2023/03/20 12:16:24;;;;;;;;;;;;;;;;;;2215768;66;1109;-69
2023/03/20 12:18:58;;;;;;;;;;;;;;;;;;2212457;67;1238;-69
2023/03/20 12:21:35;;;;;;;;;;;;;;;;;;2212993;67;1141;-69
2023/03/20 12:24:12;;;;;;;;;;;;;;;;;;2212244;67;1281;-69
2023/03/20 12:26:47;;;;;;;;;;;;;;;;;;2212331;59;1064;-69
2023/03/20 12:32:39;;;;;;;;;;;;;;;;;;2212256;67;1168;-68
2023/03/20 12:35:24;;;;;;;;;;;;;;;;;;2212710;67;974;-69
2023/03/20 12:37:55;;;;;;;;;;;;;;;;;;2214077;67;1258;-67
2023/03/20 12:40:54;;;;;;;;;;;;;;;;;;2218356;67;1107;-69
2023/03/20 12:43:28;;;;;;;;;;;;;;;;;;2219859;67;1344;-68
2023/03/20 12:45:59;;;;;;;;;;;;;;;;;;2221243;59;1239;-69
2023/03/20 12:48:38;;;;;;;;;;;;;;;;;;2223390;67;1931;-69
2023/03/20 12:51:21;;;;;;;;;;;;;;;;;;2223714;67;1222;-69
2023/03/20 12:54:10;;;;;;;;;;;;;;;;;;2223235;59;1243;-68
2023/03/20 12:56:56;;;;;;;;;;;;;;;;;;2217060;67;1099;-67
2023/03/20 12:59:46;;;;;;;;;;;;;;;;;;2221598;67;1240;-68
2023/03/20 13:02:24;;;;;;;;;;;;;;;;;;2224317;66;930;-69
2023/03/20 13:05:16;;;;;;;;;;;;;;;;;;2225530;66;946;-69
2023/03/20 13:08:05;;;;;;;;;;;;;;;;;;2228408;66;1269;-68
2023/03/20 13:10:40;;;;;;;;;;;;;;;;;;2224841;66;1923;-68
2023/03/20 13:13:18;;;;;;;;;;;;;;;;;;2229395;66;1040;-69
2023/03/20 13:16:15;;;;;;;;;;;;;;;;;;2226399;66;968;-67
2023/03/20 13:18:57;;;;;;;;;;;;;;;;;;2224579;67;1360;-68
2023/03/20 13:21:56;;;;;;;;;;;;;;;;;;2225354;67;1050;-68
2023/03/20 13:24:32;;;;;;;;;;;;;;;;;;2228319;59;1007;-69
2023/03/20 13:27:22;;;;;;;;;;;;;;;;;;2223682;66;1255;-68
2023/03/20 13:30:11;;;;;;;;;;;;;;;;;;2213259;67;1940;-69
2023/03/20 13:32:51;;;;;;;;;;;;;;;;;;2211961;67;1639;-70
2023/03/20 13:35:29;;;;;;;;;;;;;;;;;;2213857;67;1104;-69
2023/03/20 13:38:05;;;;;;;;;;;;;;;;;;2212990;66;1296;-69
2023/03/20 13:40:40;;;;;;;;;;;;;;;;;;2213260;66;961;-69
2023/03/20 13:43:43;;;;;;;;;;;;;;;;;;2223936;66;1227;-65
2023/03/20 13:46:27;;;;;;;;;;;;;;;;;;2221568;59;1124;-67
2023/03/20 13:49:01;;;;;;;;;;;;;;;;;;2211646;67;1944;-69
2023/03/20 13:51:31;;;;;;;;;;;;;;;;;;2212395;66;1045;-69
2023/03/20 13:54:03;;;;;;;;;;;;;;;;;;2212601;59;1125;-69
2023/03/20 13:56:39;;;;;;;;;;;;;;;;;;2212794;67;1086;-69
2023/03/20 13:59:25;;;;;;;;;;;;;;;;;;2211198;67;1525;-69
2023/03/20 14:02:13;;;;;;;;;;;;;;;;;;2218001;67;1048;-69
2023/03/20 14:04:47;;;;;;;;;;;;;;;;;;2212811;67;1174;-68
2023/03/20 14:08:09;;;;;;;;;;;;;;;;;;2214878;59;1377;-69
2023/03/20 14:10:37;;;;;;;;;;;;;;;;;;2219975;59;1943;-68
2023/03/20 14:13:12;;;;;;;;;;;;;;;;;;2213530;67;1185;-69
2023/03/20 14:15:54;;;;;;;;;;;;;;;;;;2215031;67;1171;-69
2023/03/20 14:18:25;;;;;;;;;;;;;;;;;;2217462;59;1479;-69
2023/03/20 14:21:09;;;;;;;;;;;;;;;;;;2213545;66;1149;-68
2023/03/20 14:23:43;;;;;;;;;;;;;;;;;;2212502;67;1034;-69
2023/03/20 14:26:36;;;;;;;;;;;;;;;;;;2213239;67;1096;-70
2023/03/20 14:29:25;;;;;;;;;;;;;;;;;;2211633;67;1924;-69
2023/03/20 14:32:15;;;;;;;;;;;;;;;;;;2213083;59;1373;-69
2023/03/20 14:34:46;;;;;;;;;;;;;;;;;;2212950;67;1268;-69
2023/03/20 14:37:26;;;;;;;;;;;;;;;;;;2212944;67;1287;-69
2023/03/20 14:39:59;;;;;;;;;;;;;;;;;;2212532;67;1217;-68
2023/03/20 14:42:36;;;;;;;;;;;;;;;;;;2212987;67;1302;-69
2023/03/20 14:45:12;;;;;;;;;;;;;;;;;;2215491;66;1048;-70
2023/03/20 14:47:52;;;;;;;;;;;;;;;;;;2213680;59;1237;-69
2023/03/20 14:50:29;;;;;;;;;;;;;;;;;;2212924;59;2006;-69
2023/03/20 14:53:07;;;;;;;;;;;;;;;;;;2213790;59;1070;-69
2023/03/20 14:55:50;;;;;;;;;;;;;;;;;;2213162;67;1202;-69
2023/03/20 14:58:39;;;;;;;;;;;;;;;;;;2213096;59;1233;-69
2023/03/20 15:01:21;;;;;;;;;;;;;;;;;;2212248;67;1362;-69
2023/03/20 15:03:56;;;;;;;;;;;;;;;;;;2213023;67;1037;-69
2023/03/20 15:06:27;;;;;;;;;;;;;;;;;;2213981;59;1162;-69
2023/03/20 15:09:03;;;;;;;;;;;;;;;;;;2212537;67;1988;-69
2023/03/20 15:11:34;;;;;;;;;;;;;;;;;;2213808;59;1282;-69
2023/03/20 15:14:06;;;;;;;;;;;;;;;;;;2213469;67;1223;-69
2023/03/20 15:16:37;;;;;;;;;;;;;;;;;;2214233;66;1331;-69
2023/03/20 15:19:20;;;;;;;;;;;;;;;;;;2214027;67;1174;-69
2023/03/20 15:21:50;;;;;;;;;;;;;;;;;;2214872;67;947;-69
2023/03/20 15:24:25;;;;;;;;;;;;;;;;;;2213980;66;1109;-69
2023/03/20 15:26:58;;;;;;;;;;;;;;;;;;2212988;67;2164;-69
2023/03/20 15:29:31;;;;;;;;;;;;;;;;;;2214353;58;1974;-69
2023/03/20 15:32:02;;;;;;;;;;;;;;;;;;2214081;66;1179;-68
2023/03/20 15:34:35;;;;;;;;;;;;;;;;;;2214646;66;1246;-69
2023/03/20 15:37:09;;;;;;;;;;;;;;;;;;2213122;67;1295;-68
2023/03/20 15:39:47;;;;;;;;;;;;;;;;;;2213877;67;1242;-69
2023/03/20 15:42:20;;;;;;;;;;;;;;;;;;2214274;67;1227;-69
2023/03/20 15:44:54;;;;;;;;;;;;;;;;;;2213376;66;1088;-69
2023/03/20 15:47:25;;;;;;;;;;;;;;;;;;2214011;59;1115;-69
2023/03/20 15:49:59;;;;;;;;;;;;;;;;;;2214041;58;1932;-69
2023/03/20 15:52:31;;;;;;;;;;;;;;;;;;2213971;67;1151;-69
2023/03/20 15:55:05;;;;;;;;;;;;;;;;;;2213792;66;1131;-69
2023/03/20 15:57:37;;;;;;;;;;;;;;;;;;2213344;67;1556;-68
2023/03/20 16:00:13;;;;;;;;;;;;;;;;;;2213491;67;1230;-69
2023/03/20 16:02:45;;;;;;;;;;;;;;;;;;2214050;67;1109;-69
2023/03/20 16:05:16;;;;;;;;;;;;;;;;;;2214459;67;1214;-69
2023/03/20 16:07:46;;;;;;;;;;;;;;;;;;2213431;66;1222;-68
2023/03/20 16:10:16;;;;;;;;;;;;;;;;;;2213896;67;1943;-69
2023/03/20 16:12:48;;;;;;;;;;;;;;;;;;2214312;67;1088;-69
2023/03/20 16:15:19;;;;;;;;;;;;;;;;;;2214309;67;1294;-69
2023/03/20 16:17:52;;;;;;;;;;;;;;;;;;2213835;66;1225;-69
2023/03/20 16:20:23;;;;;;;;;;;;;;;;;;2213427;67;1091;-68
2023/03/20 16:22:59;;;;;;;;;;;;;;;;;;2213806;67;1101;-68
2023/03/20 16:25:30;;;;;;;;;;;;;;;;;;2212767;67;1570;-68
2023/03/20 16:28:01;;;;;;;;;;;;;;;;;;2213705;67;1286;-69
2023/03/20 16:30:33;;;;;;;;;;;;;;;;;;2213160;59;1934;-70
2023/03/20 16:33:14;;;;;;;;;;;;;;;;;;2213431;67;1240;-69
2023/03/20 16:35:47;;;;;;;;;;;;;;;;;;2213662;67;1173;-70
2023/03/20 16:38:29;;;;;;;;;;;;;;;;;;2213933;59;1234;-69
2023/03/20 16:41:15;;;;;;;;;;;;;;;;;;2213859;66;1164;-69
2023/03/20 16:43:49;;;;;;;;;;;;;;;;;;2213516;59;1349;-69
2023/03/20 16:46:21;;;;;;;;;;;;;;;;;;2213896;59;1511;-69
2023/03/20 16:49:14;;;;;;;;;;;;;;;;;;2215583;66;1909;-68
2023/03/20 16:51:56;;;;;;;;;;;;;;;;;;2213935;67;1183;-69
2023/03/20 16:54:28;;;;;;;;;;;;;;;;;;2213135;66;1194;-69
2023/03/20 16:56:59;;;;;;;;;;;;;;;;;;2213463;67;1195;-69
2023/03/20 16:59:30;;;;;;;;;;;;;;;;;;2215516;66;2137;-67
2023/03/20 17:02:00;;;;;;;;;;;;;;;;;;2213452;66;1188;-69
2023/03/20 17:04:35;;;;;;;;;;;;;;;;;;2213334;67;1164;-69
2023/03/20 17:07:11;;;;;;;;;;;;;;;;;;2213640;67;1701;-68
2023/03/20 17:09:58;;;;;;;;;;;;;;;;;;2212651;66;1928;-68
2023/03/20 17:12:31;;;;;;;;;;;;;;;;;;2213283;59;1184;-69
2023/03/20 17:15:01;;;;;;;;;;;;;;;;;;2212833;67;1118;-69
2023/03/20 17:17:32;;;;;;;;;;;;;;;;;;2213943;67;1183;-69
2023/03/20 17:20:03;;;;;;;;;;;;;;;;;;2214111;66;1273;-69
2023/03/20 17:22:34;;;;;;;;;;;;;;;;;;2213465;66;1210;-69
2023/03/20 17:25:05;;;;;;;;;;;;;;;;;;2212478;67;1294;-69
2023/03/20 17:27:36;;;;;;;;;;;;;;;;;;2212979;67;1326;-69
2023/03/20 17:30:14;;;;;;;;;;;;;;;;;;2213888;67;1990;-67
2023/03/20 17:32:45;;;;;;;;;;;;;;;;;;2214404;67;1179;-69
2023/03/20 17:35:15;;;;;;;;;;;;;;;;;;2213136;66;993;-69
2023/03/20 17:37:48;;;;;;;;;;;;;;;;;;2213958;67;1260;-68
2023/03/20 17:40:20;;;;;;;;;;;;;;;;;;2214931;66;1611;-69
2023/03/20 17:42:50;;;;;;;;;;;;;;;;;;2214134;66;1359;-69
2023/03/20 17:45:21;;;;;;;;;;;;;;;;;;2213137;59;1082;-69
2023/03/20 17:47:58;;;;;;;;;;;;;;;;;;2212773;66;1243;-69
2023/03/20 17:50:29;;;;;;;;;;;;;;;;;;2212635;67;1929;-69
2023/03/20 17:52:59;;;;;;;;;;;;;;;;;;2216631;66;1148;-69
2023/03/20 17:55:29;;;;;;;;;;;;;;;;;;2214073;67;1236;-68
2023/03/20 17:58:00;;;;;;;;;;;;;;;;;;2212776;67;1287;-70
2023/03/20 18:00:30;;;;;;;;;;;;;;;;;;2213647;67;1176;-70